sensor_id;sensor_type;location;lat;lon;timestamp;temperature;humidity
51837;DHT22;38941;53.254;6.600;2023-04-15T00:01:15;7.10;99.90
51837;DHT22;38941;53.254;6.600;2023-04-15T00:03:19;7.10;99.90
51837;DHT22;38941;53.254;6.600;2023-04-15T00:05:21;7.00;99.90
51837;DHT22;38941;53.254;6.600;2023-04-15T00:07:24;6.90;99.90
51837;DHT22;38941;53.254;6.600;2023-04-15T00:09:26;6.90;99.90
51837;DHT22;38941;53.254;6.600;2023-04-15T00:11:28;6.90;99.90
51837;DHT22;38941;53.254;6.600;2023-04-15T00:13:30;6.70;99.90
51837;DHT22;38941;53.254;6.600;2023-04-15T00:15:32;6.80;99.90
51837;DHT22;38941;53.254;6.600;2023-04-15T00:17:38;7.30;99.90
51837;DHT22;38941;53.254;6.600;2023-04-15T00:19:41;6.70;99.90
51837;DHT22;38941;53.254;6.600;2023-04-15T00:21:44;7.00;99.90
51837;DHT22;38941;53.254;6.600;2023-04-15T00:23:46;6.70;99.90
51837;DHT22;38941;53.254;6.600;2023-04-15T00:25:51;6.80;99.90
51837;DHT22;38941;53.254;6.600;2023-04-15T00:27:52;6.60;99.90
51837;DHT22;38941;53.254;6.600;2023-04-15T00:29:54;6.50;99.90
51837;DHT22;38941;53.254;6.600;2023-04-15T00:31:58;6.70;99.90
51837;DHT22;38941;53.254;6.600;2023-04-15T00:33:59;6.40;99.90
51837;DHT22;38941;53.254;6.600;2023-04-15T00:36:02;6.40;99.90
51837;DHT22;38941;53.254;6.600;2023-04-15T00:38:04;6.40;99.90
51837;DHT22;38941;53.254;6.600;2023-04-15T00:40:06;6.40;99.90
51837;DHT22;38941;53.254;6.600;2023-04-15T00:42:09;6.40;99.90
51837;DHT22;38941;53.254;6.600;2023-04-15T00:44:11;6.40;99.90
51837;DHT22;38941;53.254;6.600;2023-04-15T00:46:15;6.40;99.90
51837;DHT22;38941;53.254;6.600;2023-04-15T00:48:17;7.40;99.90
51837;DHT22;38941;53.254;6.600;2023-04-15T00:50:18;7.10;99.90
51837;DHT22;38941;53.254;6.600;2023-04-15T00:52:19;6.30;99.90
51837;DHT22;38941;53.254;6.600;2023-04-15T00:54:21;6.30;99.90
51837;DHT22;38941;53.254;6.600;2023-04-15T00:56:25;6.30;99.90
51837;DHT22;38941;53.254;6.600;2023-04-15T00:58:27;6.20;99.90
51837;DHT22;38941;53.254;6.600;2023-04-15T01:00:34;6.90;99.90
51837;DHT22;38941;53.254;6.600;2023-04-15T01:02:37;6.70;99.90
51837;DHT22;38941;53.254;6.600;2023-04-15T01:04:41;6.10;99.90
51837;DHT22;38941;53.254;6.600;2023-04-15T01:06:42;7.80;99.90
51837;DHT22;38941;53.254;6.600;2023-04-15T01:08:43;6.30;99.90
51837;DHT22;38941;53.254;6.600;2023-04-15T01:10:45;6.90;99.90
51837;DHT22;38941;53.254;6.600;2023-04-15T01:12:48;6.10;99.90
51837;DHT22;38941;53.254;6.600;2023-04-15T01:14:49;6.10;99.90
51837;DHT22;38941;53.254;6.600;2023-04-15T01:16:51;6.00;99.90
51837;DHT22;38941;53.254;6.600;2023-04-15T01:18:54;6.00;99.90
51837;DHT22;38941;53.254;6.600;2023-04-15T01:20:56;5.90;99.90
51837;DHT22;38941;53.254;6.600;2023-04-15T01:22:58;5.90;99.90
51837;DHT22;38941;53.254;6.600;2023-04-15T01:25:24;5.90;99.90
51837;DHT22;38941;53.254;6.600;2023-04-15T01:27:30;6.00;99.90
51837;DHT22;38941;53.254;6.600;2023-04-15T01:29:36;5.10;99.90
51837;DHT22;38941;53.254;6.600;2023-04-15T01:31:38;5.80;99.90
51837;DHT22;38941;53.254;6.600;2023-04-15T01:33:41;5.80;99.90
51837;DHT22;38941;53.254;6.600;2023-04-15T01:35:43;5.70;99.90
51837;DHT22;38941;53.254;6.600;2023-04-15T01:37:45;5.80;99.90
51837;DHT22;38941;53.254;6.600;2023-04-15T01:39:47;5.80;99.90
51837;DHT22;38941;53.254;6.600;2023-04-15T01:41:49;5.70;99.90
51837;DHT22;38941;53.254;6.600;2023-04-15T01:43:51;5.70;99.90
51837;DHT22;38941;53.254;6.600;2023-04-15T01:45:53;5.60;99.90
51837;DHT22;38941;53.254;6.600;2023-04-15T01:47:55;7.10;99.90
51837;DHT22;38941;53.254;6.600;2023-04-15T01:50:02;5.80;99.90
51837;DHT22;38941;53.254;6.600;2023-04-15T01:52:04;5.60;99.90
51837;DHT22;38941;53.254;6.600;2023-04-15T01:54:05;5.60;99.90
51837;DHT22;38941;53.254;6.600;2023-04-15T01:56:06;5.50;99.90
51837;DHT22;38941;53.254;6.600;2023-04-15T01:58:07;5.60;99.90
51837;DHT22;38941;53.254;6.600;2023-04-15T02:00:09;5.50;99.90
51837;DHT22;38941;53.254;6.600;2023-04-15T02:02:12;5.50;99.90
51837;DHT22;38941;53.254;6.600;2023-04-15T02:04:12;5.40;99.90
51837;DHT22;38941;53.254;6.600;2023-04-15T02:06:16;5.40;99.90
51837;DHT22;38941;53.254;6.600;2023-04-15T02:08:18;5.30;99.90
51837;DHT22;38941;53.254;6.600;2023-04-15T02:10:19;5.60;99.90
51837;DHT22;38941;53.254;6.600;2023-04-15T02:12:20;5.30;99.90
51837;DHT22;38941;53.254;6.600;2023-04-15T02:14:22;6.90;99.90
51837;DHT22;38941;53.254;6.600;2023-04-15T02:16:24;5.30;99.90
51837;DHT22;38941;53.254;6.600;2023-04-15T02:18:25;5.30;99.90
51837;DHT22;38941;53.254;6.600;2023-04-15T02:20:27;6.80;99.90
51837;DHT22;38941;53.254;6.600;2023-04-15T02:22:32;5.30;99.90
51837;DHT22;38941;53.254;6.600;2023-04-15T02:24:34;5.30;99.90
51837;DHT22;38941;53.254;6.600;2023-04-15T02:26:36;5.20;99.90
51837;DHT22;38941;53.254;6.600;2023-04-15T02:28:38;5.20;99.90
51837;DHT22;38941;53.254;6.600;2023-04-15T02:30:40;5.30;99.90
51837;DHT22;38941;53.254;6.600;2023-04-15T02:32:42;4.40;99.90
51837;DHT22;38941;53.254;6.600;2023-04-15T02:34:45;4.50;99.90
51837;DHT22;38941;53.254;6.600;2023-04-15T02:36:48;5.10;99.90
51837;DHT22;38941;53.254;6.600;2023-04-15T02:38:51;6.60;99.90
51837;DHT22;38941;53.254;6.600;2023-04-15T02:40:54;5.10;99.90
51837;DHT22;38941;53.254;6.600;2023-04-15T02:42:56;5.00;99.90
51837;DHT22;38941;53.254;6.600;2023-04-15T02:44:57;5.00;99.90
51837;DHT22;38941;53.254;6.600;2023-04-15T02:46:59;5.00;99.90
51837;DHT22;38941;53.254;6.600;2023-04-15T02:49:08;5.40;99.90
51837;DHT22;38941;53.254;6.600;2023-04-15T02:51:16;5.10;99.90
51837;DHT22;38941;53.254;6.600;2023-04-15T02:53:19;5.10;99.90
51837;DHT22;38941;53.254;6.600;2023-04-15T02:55:20;5.30;99.90
51837;DHT22;38941;53.254;6.600;2023-04-15T02:57:22;5.00;99.90
51837;DHT22;38941;53.254;6.600;2023-04-15T02:59:22;5.00;99.90
51837;DHT22;38941;53.254;6.600;2023-04-15T03:01:23;5.00;99.90
51837;DHT22;38941;53.254;6.600;2023-04-15T03:03:26;5.00;99.90
51837;DHT22;38941;53.254;6.600;2023-04-15T03:05:32;5.80;99.90
51837;DHT22;38941;53.254;6.600;2023-04-15T03:07:35;5.00;99.90
51837;DHT22;38941;53.254;6.600;2023-04-15T03:09:36;5.10;99.90
51837;DHT22;38941;53.254;6.600;2023-04-15T03:11:39;4.90;99.90
51837;DHT22;38941;53.254;6.600;2023-04-15T03:13:45;5.10;99.90
51837;DHT22;38941;53.254;6.600;2023-04-15T03:15:47;5.00;99.90
51837;DHT22;38941;53.254;6.600;2023-04-15T03:17:55;6.30;99.90
51837;DHT22;38941;53.254;6.600;2023-04-15T03:19:56;4.90;99.90
51837;DHT22;38941;53.254;6.600;2023-04-15T03:21:57;4.90;99.90
51837;DHT22;38941;53.254;6.600;2023-04-15T03:23:59;4.80;99.90
51837;DHT22;38941;53.254;6.600;2023-04-15T03:26:03;4.80;99.90
51837;DHT22;38941;53.254;6.600;2023-04-15T03:28:09;4.60;99.90
51837;DHT22;38941;53.254;6.600;2023-04-15T03:30:10;4.70;99.90
51837;DHT22;38941;53.254;6.600;2023-04-15T03:32:17;4.60;99.90
51837;DHT22;38941;53.254;6.600;2023-04-15T03:34:18;4.60;99.90
51837;DHT22;38941;53.254;6.600;2023-04-15T03:36:21;4.60;99.90
51837;DHT22;38941;53.254;6.600;2023-04-15T03:38:23;5.90;99.90
51837;DHT22;38941;53.254;6.600;2023-04-15T03:40:25;4.70;99.90
51837;DHT22;38941;53.254;6.600;2023-04-15T03:42:28;4.60;99.90
51837;DHT22;38941;53.254;6.600;2023-04-15T03:44:30;4.70;99.90
51837;DHT22;38941;53.254;6.600;2023-04-15T03:46:31;4.50;99.90
51837;DHT22;38941;53.254;6.600;2023-04-15T03:48:32;4.50;99.90
51837;DHT22;38941;53.254;6.600;2023-04-15T03:50:33;4.60;99.90
51837;DHT22;38941;53.254;6.600;2023-04-15T03:52:35;4.80;99.90
51837;DHT22;38941;53.254;6.600;2023-04-15T03:54:37;4.60;99.90
51837;DHT22;38941;53.254;6.600;2023-04-15T03:56:39;4.80;99.90
51837;DHT22;38941;53.254;6.600;2023-04-15T03:58:41;4.50;99.90
51837;DHT22;38941;53.254;6.600;2023-04-15T04:00:42;4.40;99.90
51837;DHT22;38941;53.254;6.600;2023-04-15T04:02:43;4.30;99.90
51837;DHT22;38941;53.254;6.600;2023-04-15T04:04:46;4.40;99.90
51837;DHT22;38941;53.254;6.600;2023-04-15T04:06:48;4.30;99.90
51837;DHT22;38941;53.254;6.600;2023-04-15T04:08:51;2.70;99.90
51837;DHT22;38941;53.254;6.600;2023-04-15T04:10:51;4.20;99.90
51837;DHT22;38941;53.254;6.600;2023-04-15T04:12:54;5.00;99.90
51837;DHT22;38941;53.254;6.600;2023-04-15T04:14:55;4.20;99.90
51837;DHT22;38941;53.254;6.600;2023-04-15T04:16:58;5.40;99.90
51837;DHT22;38941;53.254;6.600;2023-04-15T04:19:00;4.20;99.90
51837;DHT22;38941;53.254;6.600;2023-04-15T04:21:03;4.30;99.90
51837;DHT22;38941;53.254;6.600;2023-04-15T04:23:06;4.40;99.90
51837;DHT22;38941;53.254;6.600;2023-04-15T04:25:10;2.80;99.90
51837;DHT22;38941;53.254;6.600;2023-04-15T04:27:12;4.40;99.90
51837;DHT22;38941;53.254;6.600;2023-04-15T04:29:13;4.10;99.90
51837;DHT22;38941;53.254;6.600;2023-04-15T04:31:17;4.30;99.90
51837;DHT22;38941;53.254;6.600;2023-04-15T04:33:19;4.20;99.90
51837;DHT22;38941;53.254;6.600;2023-04-15T04:35:20;3.80;99.90
51837;DHT22;38941;53.254;6.600;2023-04-15T04:37:22;4.30;99.90
51837;DHT22;38941;53.254;6.600;2023-04-15T04:39:26;4.40;99.90
51837;DHT22;38941;53.254;6.600;2023-04-15T04:41:27;4.00;99.90
51837;DHT22;38941;53.254;6.600;2023-04-15T04:43:29;5.80;99.90
51837;DHT22;38941;53.254;6.600;2023-04-15T04:45:30;4.00;99.90
51837;DHT22;38941;53.254;6.600;2023-04-15T04:47:35;4.00;99.90
51837;DHT22;38941;53.254;6.600;2023-04-15T04:49:38;4.00;99.90
51837;DHT22;38941;53.254;6.600;2023-04-15T04:51:40;3.90;99.90
51837;DHT22;38941;53.254;6.600;2023-04-15T04:53:42;3.90;99.90
51837;DHT22;38941;53.254;6.600;2023-04-15T04:55:45;3.80;99.90
51837;DHT22;38941;53.254;6.600;2023-04-15T04:57:50;4.50;99.90
51837;DHT22;38941;53.254;6.600;2023-04-15T04:59:51;4.20;99.90
51837;DHT22;38941;53.254;6.600;2023-04-15T05:01:53;3.90;99.90
51837;DHT22;38941;53.254;6.600;2023-04-15T05:03:54;3.80;99.90
51837;DHT22;38941;53.254;6.600;2023-04-15T05:05:56;4.10;99.90
51837;DHT22;38941;53.254;6.600;2023-04-15T05:07:58;3.80;99.90
51837;DHT22;38941;53.254;6.600;2023-04-15T05:10:00;3.90;99.90
51837;DHT22;38941;53.254;6.600;2023-04-15T05:12:07;4.00;99.90
51837;DHT22;38941;53.254;6.600;2023-04-15T05:14:09;4.00;99.90
51837;DHT22;38941;53.254;6.600;2023-04-15T05:16:10;4.00;99.90
51837;DHT22;38941;53.254;6.600;2023-04-15T05:18:14;4.00;99.90
51837;DHT22;38941;53.254;6.600;2023-04-15T05:20:15;3.30;99.90
51837;DHT22;38941;53.254;6.600;2023-04-15T05:22:16;4.10;99.90
51837;DHT22;38941;53.254;6.600;2023-04-15T05:24:21;3.90;99.90
51837;DHT22;38941;53.254;6.600;2023-04-15T05:26:22;4.10;99.90
51837;DHT22;38941;53.254;6.600;2023-04-15T05:28:29;4.20;99.90
51837;DHT22;38941;53.254;6.600;2023-04-15T05:30:31;4.40;99.90
51837;DHT22;38941;53.254;6.600;2023-04-15T05:32:33;5.90;99.90
51837;DHT22;38941;53.254;6.600;2023-04-15T05:34:35;4.50;99.90
51837;DHT22;38941;53.254;6.600;2023-04-15T05:36:37;4.40;99.90
51837;DHT22;38941;53.254;6.600;2023-04-15T05:38:40;4.50;99.90
51837;DHT22;38941;53.254;6.600;2023-04-15T05:40:43;4.60;99.90
51837;DHT22;38941;53.254;6.600;2023-04-15T05:42:43;4.80;99.90
51837;DHT22;38941;53.254;6.600;2023-04-15T05:44:46;4.60;99.90
51837;DHT22;38941;53.254;6.600;2023-04-15T05:46:47;5.80;99.90
51837;DHT22;38941;53.254;6.600;2023-04-15T05:48:58;6.30;99.90
51837;DHT22;38941;53.254;6.600;2023-04-15T05:51:01;5.70;99.90
51837;DHT22;38941;53.254;6.600;2023-04-15T05:53:03;5.00;99.90
51837;DHT22;38941;53.254;6.600;2023-04-15T05:55:04;6.60;99.90
51837;DHT22;38941;53.254;6.600;2023-04-15T05:57:06;3.90;99.90
51837;DHT22;38941;53.254;6.600;2023-04-15T05:59:08;5.60;99.90
51837;DHT22;38941;53.254;6.600;2023-04-15T06:01:10;5.60;99.90
51837;DHT22;38941;53.254;6.600;2023-04-15T06:03:12;5.40;99.90
51837;DHT22;38941;53.254;6.600;2023-04-15T06:05:13;5.50;99.90
51837;DHT22;38941;53.254;6.600;2023-04-15T06:07:13;5.70;99.90
51837;DHT22;38941;53.254;6.600;2023-04-15T06:09:16;5.70;99.90
51837;DHT22;38941;53.254;6.600;2023-04-15T06:11:17;5.70;99.90
51837;DHT22;38941;53.254;6.600;2023-04-15T06:13:18;6.70;99.90
51837;DHT22;38941;53.254;6.600;2023-04-15T06:15:19;5.90;99.90
51837;DHT22;38941;53.254;6.600;2023-04-15T06:17:22;6.00;99.90
51837;DHT22;38941;53.254;6.600;2023-04-15T06:19:23;7.10;99.90
51837;DHT22;38941;53.254;6.600;2023-04-15T06:21:25;4.80;99.90
51837;DHT22;38941;53.254;6.600;2023-04-15T06:23:26;6.30;99.90
51837;DHT22;38941;53.254;6.600;2023-04-15T06:25:28;6.40;99.90
51837;DHT22;38941;53.254;6.600;2023-04-15T06:27:29;6.40;99.90
51837;DHT22;38941;53.254;6.600;2023-04-15T06:29:32;6.70;99.90
51837;DHT22;38941;53.254;6.600;2023-04-15T06:31:39;6.80;99.90
51837;DHT22;38941;53.254;6.600;2023-04-15T06:33:41;7.80;99.90
51837;DHT22;38941;53.254;6.600;2023-04-15T06:35:43;6.80;99.90
51837;DHT22;38941;53.254;6.600;2023-04-15T06:37:46;5.60;99.90
51837;DHT22;38941;53.254;6.600;2023-04-15T06:39:47;7.10;99.90
51837;DHT22;38941;53.254;6.600;2023-04-15T06:41:49;7.20;99.90
51837;DHT22;38941;53.254;6.600;2023-04-15T06:43:51;7.40;99.90
51837;DHT22;38941;53.254;6.600;2023-04-15T06:45:51;7.40;99.90
51837;DHT22;38941;53.254;6.600;2023-04-15T06:47:53;7.50;99.90
51837;DHT22;38941;53.254;6.600;2023-04-15T06:49:55;7.60;99.90
51837;DHT22;38941;53.254;6.600;2023-04-15T06:51:56;8.30;99.90
51837;DHT22;38941;53.254;6.600;2023-04-15T06:53:57;7.90;99.90
51837;DHT22;38941;53.254;6.600;2023-04-15T06:55:59;7.90;99.90
51837;DHT22;38941;53.254;6.600;2023-04-15T06:58:07;8.00;99.90
51837;DHT22;38941;53.254;6.600;2023-04-15T07:00:09;8.10;99.90
51837;DHT22;38941;53.254;6.600;2023-04-15T07:02:13;8.10;99.90
51837;DHT22;38941;53.254;6.600;2023-04-15T07:04:15;8.10;99.90
51837;DHT22;38941;53.254;6.600;2023-04-15T07:06:16;8.40;99.90
51837;DHT22;38941;53.254;6.600;2023-04-15T07:08:18;8.40;99.90
51837;DHT22;38941;53.254;6.600;2023-04-15T07:10:28;8.20;99.90
51837;DHT22;38941;53.254;6.600;2023-04-15T07:12:29;8.30;99.90
51837;DHT22;38941;53.254;6.600;2023-04-15T07:14:31;8.40;99.90
51837;DHT22;38941;53.254;6.600;2023-04-15T07:16:32;8.30;99.90
51837;DHT22;38941;53.254;6.600;2023-04-15T07:18:33;8.40;99.90
51837;DHT22;38941;53.254;6.600;2023-04-15T07:20:35;8.30;99.90
51837;DHT22;38941;53.254;6.600;2023-04-15T07:22:38;8.30;99.90
51837;DHT22;38941;53.254;6.600;2023-04-15T07:24:39;8.40;99.90
51837;DHT22;38941;53.254;6.600;2023-04-15T07:26:41;8.40;99.90
51837;DHT22;38941;53.254;6.600;2023-04-15T07:28:44;8.40;99.90
51837;DHT22;38941;53.254;6.600;2023-04-15T07:30:46;8.50;99.90
51837;DHT22;38941;53.254;6.600;2023-04-15T07:32:47;8.40;99.90
51837;DHT22;38941;53.254;6.600;2023-04-15T07:34:48;8.40;99.90
51837;DHT22;38941;53.254;6.600;2023-04-15T07:36:50;7.60;99.90
51837;DHT22;38941;53.254;6.600;2023-04-15T07:38:51;8.40;99.90
51837;DHT22;38941;53.254;6.600;2023-04-15T07:40:53;8.60;99.90
51837;DHT22;38941;53.254;6.600;2023-04-15T07:42:55;8.90;99.90
51837;DHT22;38941;53.254;6.600;2023-04-15T07:44:57;8.50;99.90
51837;DHT22;38941;53.254;6.600;2023-04-15T07:46:58;8.70;99.90
51837;DHT22;38941;53.254;6.600;2023-04-15T07:48:59;8.60;99.90
51837;DHT22;38941;53.254;6.600;2023-04-15T07:51:03;8.70;99.90
51837;DHT22;38941;53.254;6.600;2023-04-15T07:53:08;8.80;99.90
51837;DHT22;38941;53.254;6.600;2023-04-15T07:55:10;8.80;99.90
51837;DHT22;38941;53.254;6.600;2023-04-15T07:57:11;9.10;99.90
51837;DHT22;38941;53.254;6.600;2023-04-15T07:59:11;8.80;99.90
51837;DHT22;38941;53.254;6.600;2023-04-15T08:01:13;8.00;99.90
51837;DHT22;38941;53.254;6.600;2023-04-15T08:03:14;9.40;99.90
51837;DHT22;38941;53.254;6.600;2023-04-15T08:05:16;9.00;99.90
51837;DHT22;38941;53.254;6.600;2023-04-15T08:07:17;8.90;99.90
51837;DHT22;38941;53.254;6.600;2023-04-15T08:09:18;7.70;99.90
51837;DHT22;38941;53.254;6.600;2023-04-15T08:11:19;8.80;99.90
51837;DHT22;38941;53.254;6.600;2023-04-15T08:13:20;8.80;99.90
51837;DHT22;38941;53.254;6.600;2023-04-15T08:15:22;8.90;99.90
51837;DHT22;38941;53.254;6.600;2023-04-15T08:17:24;8.90;99.90
51837;DHT22;38941;53.254;6.600;2023-04-15T08:19:27;8.90;99.90
51837;DHT22;38941;53.254;6.600;2023-04-15T08:21:30;8.80;99.90
51837;DHT22;38941;53.254;6.600;2023-04-15T08:23:31;8.80;99.90
51837;DHT22;38941;53.254;6.600;2023-04-15T08:25:34;8.70;99.90
51837;DHT22;38941;53.254;6.600;2023-04-15T08:27:34;8.50;99.90
51837;DHT22;38941;53.254;6.600;2023-04-15T08:29:37;8.60;99.90
51837;DHT22;38941;53.254;6.600;2023-04-15T08:31:38;8.70;99.90
51837;DHT22;38941;53.254;6.600;2023-04-15T08:33:39;8.60;99.90
51837;DHT22;38941;53.254;6.600;2023-04-15T08:35:41;7.90;99.90
51837;DHT22;38941;53.254;6.600;2023-04-15T08:37:44;8.70;99.90
51837;DHT22;38941;53.254;6.600;2023-04-15T08:39:45;8.70;99.90
51837;DHT22;38941;53.254;6.600;2023-04-15T08:42:00;8.60;99.90
51837;DHT22;38941;53.254;6.600;2023-04-15T08:44:04;9.30;99.90
51837;DHT22;38941;53.254;6.600;2023-04-15T08:46:07;8.70;99.90
51837;DHT22;38941;53.254;6.600;2023-04-15T08:48:13;8.70;99.90
51837;DHT22;38941;53.254;6.600;2023-04-15T08:50:16;8.90;99.90
51837;DHT22;38941;53.254;6.600;2023-04-15T08:52:17;8.80;99.90
51837;DHT22;38941;53.254;6.600;2023-04-15T08:54:19;8.90;99.90
51837;DHT22;38941;53.254;6.600;2023-04-15T08:56:24;8.80;99.90
51837;DHT22;38941;53.254;6.600;2023-04-15T08:58:29;10.00;99.90
51837;DHT22;38941;53.254;6.600;2023-04-15T09:00:30;9.00;99.90
51837;DHT22;38941;53.254;6.600;2023-04-15T09:02:32;8.90;99.90
51837;DHT22;38941;53.254;6.600;2023-04-15T09:04:33;8.90;99.90
51837;DHT22;38941;53.254;6.600;2023-04-15T09:06:34;8.90;99.90
51837;DHT22;38941;53.254;6.600;2023-04-15T09:08:35;8.90;99.90
51837;DHT22;38941;53.254;6.600;2023-04-15T09:10:39;9.00;99.90
51837;DHT22;38941;53.254;6.600;2023-04-15T09:12:42;9.20;99.90
51837;DHT22;38941;53.254;6.600;2023-04-15T09:14:45;9.00;99.90
51837;DHT22;38941;53.254;6.600;2023-04-15T09:18:58;9.30;99.90
51837;DHT22;38941;53.254;6.600;2023-04-15T09:21:15;9.30;99.90
51837;DHT22;38941;53.254;6.600;2023-04-15T09:23:16;9.50;99.90
51837;DHT22;38941;53.254;6.600;2023-04-15T09:27:21;9.70;99.90
51837;DHT22;38941;53.254;6.600;2023-04-15T09:29:23;9.70;99.90
51837;DHT22;38941;53.254;6.600;2023-04-15T09:31:29;9.90;99.90
51837;DHT22;38941;53.254;6.600;2023-04-15T09:33:30;10.00;99.90
51837;DHT22;38941;53.254;6.600;2023-04-15T09:35:31;10.00;99.90
51837;DHT22;38941;53.254;6.600;2023-04-15T09:37:35;10.10;99.90
51837;DHT22;38941;53.254;6.600;2023-04-15T09:39:45;9.80;99.90
51837;DHT22;38941;53.254;6.600;2023-04-15T09:42:03;10.00;99.90
51837;DHT22;38941;53.254;6.600;2023-04-15T09:44:05;10.00;99.90
51837;DHT22;38941;53.254;6.600;2023-04-15T09:46:06;10.10;99.90
51837;DHT22;38941;53.254;6.600;2023-04-15T09:48:21;10.00;99.90
51837;DHT22;38941;53.254;6.600;2023-04-15T09:50:35;10.00;99.90
51837;DHT22;38941;53.254;6.600;2023-04-15T09:52:53;10.20;99.90
51837;DHT22;38941;53.254;6.600;2023-04-15T09:54:59;10.00;99.90
51837;DHT22;38941;53.254;6.600;2023-04-15T09:57:11;10.00;99.90
51837;DHT22;38941;53.254;6.600;2023-04-15T09:59:18;10.10;99.90
51837;DHT22;38941;53.254;6.600;2023-04-15T10:01:29;10.10;99.90
51837;DHT22;38941;53.254;6.600;2023-04-15T10:03:38;10.20;99.90
51837;DHT22;38941;53.254;6.600;2023-04-15T10:05:41;10.10;99.90
51837;DHT22;38941;53.254;6.600;2023-04-15T10:07:43;10.20;99.90
51837;DHT22;38941;53.254;6.600;2023-04-15T10:09:45;10.20;99.90
51837;DHT22;38941;53.254;6.600;2023-04-15T10:11:47;10.20;99.90
51837;DHT22;38941;53.254;6.600;2023-04-15T10:13:51;10.30;99.90
51837;DHT22;38941;53.254;6.600;2023-04-15T10:16:06;10.80;99.90
51837;DHT22;38941;53.254;6.600;2023-04-15T10:18:07;10.40;99.90
51837;DHT22;38941;53.254;6.600;2023-04-15T10:20:10;10.20;99.90
51837;DHT22;38941;53.254;6.600;2023-04-15T10:22:13;10.20;99.90
51837;DHT22;38941;53.254;6.600;2023-04-15T10:24:16;10.20;99.90
51837;DHT22;38941;53.254;6.600;2023-04-15T10:26:17;10.20;99.90
51837;DHT22;38941;53.254;6.600;2023-04-15T10:28:19;10.20;99.90
51837;DHT22;38941;53.254;6.600;2023-04-15T10:30:22;10.20;99.90
51837;DHT22;38941;53.254;6.600;2023-04-15T10:32:24;10.20;99.90
51837;DHT22;38941;53.254;6.600;2023-04-15T10:34:26;10.20;99.90
51837;DHT22;38941;53.254;6.600;2023-04-15T10:36:27;9.50;99.90
51837;DHT22;38941;53.254;6.600;2023-04-15T10:38:39;10.20;99.90
51837;DHT22;38941;53.254;6.600;2023-04-15T10:40:43;10.40;99.90
51837;DHT22;38941;53.254;6.600;2023-04-15T10:42:45;10.20;99.90
51837;DHT22;38941;53.254;6.600;2023-04-15T10:44:51;10.20;99.90
51837;DHT22;38941;53.254;6.600;2023-04-15T10:46:57;8.90;99.90
51837;DHT22;38941;53.254;6.600;2023-04-15T10:51:13;10.60;99.90
51837;DHT22;38941;53.254;6.600;2023-04-15T10:53:27;10.10;99.90
51837;DHT22;38941;53.254;6.600;2023-04-15T10:55:31;10.00;99.90
51837;DHT22;38941;53.254;6.600;2023-04-15T10:57:37;10.00;99.90
51837;DHT22;38941;53.254;6.600;2023-04-15T11:02:12;9.40;99.90
51837;DHT22;38941;53.254;6.600;2023-04-15T11:04:13;10.10;99.90
51837;DHT22;38941;53.254;6.600;2023-04-15T11:06:42;10.10;99.90
51837;DHT22;38941;53.254;6.600;2023-04-15T11:08:56;10.10;99.90
51837;DHT22;38941;53.254;6.600;2023-04-15T11:10:58;10.20;99.90
51837;DHT22;38941;53.254;6.600;2023-04-15T11:17:40;9.90;99.90
51837;DHT22;38941;53.254;6.600;2023-04-15T11:19:42;10.40;99.90
51837;DHT22;38941;53.254;6.600;2023-04-15T11:21:56;10.50;99.90
51837;DHT22;38941;53.254;6.600;2023-04-15T11:23:58;10.50;99.90
51837;DHT22;38941;53.254;6.600;2023-04-15T11:26:03;10.50;99.90
51837;DHT22;38941;53.254;6.600;2023-04-15T11:28:13;10.60;99.90
51837;DHT22;38941;53.254;6.600;2023-04-15T11:30:21;10.60;99.90
51837;DHT22;38941;53.254;6.600;2023-04-15T11:32:22;10.60;99.90
51837;DHT22;38941;53.254;6.600;2023-04-15T11:34:25;10.60;99.90
51837;DHT22;38941;53.254;6.600;2023-04-15T11:36:27;10.00;99.90
51837;DHT22;38941;53.254;6.600;2023-04-15T11:38:30;10.70;99.90
51837;DHT22;38941;53.254;6.600;2023-04-15T11:40:34;10.50;99.90
51837;DHT22;38941;53.254;6.600;2023-04-15T11:42:36;10.50;99.90
51837;DHT22;38941;53.254;6.600;2023-04-15T11:44:37;10.50;99.90
51837;DHT22;38941;53.254;6.600;2023-04-15T11:46:39;10.50;99.90
51837;DHT22;38941;53.254;6.600;2023-04-15T11:48:44;10.50;99.90
51837;DHT22;38941;53.254;6.600;2023-04-15T11:50:59;10.50;99.90
51837;DHT22;38941;53.254;6.600;2023-04-15T11:53:03;10.50;99.90
51837;DHT22;38941;53.254;6.600;2023-04-15T11:55:05;10.40;99.90
51837;DHT22;38941;53.254;6.600;2023-04-15T11:57:07;9.00;99.90
51837;DHT22;38941;53.254;6.600;2023-04-15T11:59:09;10.50;99.90
51837;DHT22;38941;53.254;6.600;2023-04-15T12:01:12;10.40;99.90
51837;DHT22;38941;53.254;6.600;2023-04-15T12:03:29;10.40;99.90
51837;DHT22;38941;53.254;6.600;2023-04-15T12:05:31;10.50;99.90
51837;DHT22;38941;53.254;6.600;2023-04-15T12:07:56;10.50;99.90
51837;DHT22;38941;53.254;6.600;2023-04-15T12:09:58;10.60;99.90
51837;DHT22;38941;53.254;6.600;2023-04-15T12:11:59;10.60;99.90
51837;DHT22;38941;53.254;6.600;2023-04-15T12:16:19;10.70;99.90
51837;DHT22;38941;53.254;6.600;2023-04-15T12:18:20;10.80;99.90
51837;DHT22;38941;53.254;6.600;2023-04-15T12:20:24;10.70;99.90
51837;DHT22;38941;53.254;6.600;2023-04-15T12:22:27;10.70;99.90
51837;DHT22;38941;53.254;6.600;2023-04-15T12:24:33;10.80;99.90
51837;DHT22;38941;53.254;6.600;2023-04-15T12:26:44;10.80;99.90
51837;DHT22;38941;53.254;6.600;2023-04-15T12:28:45;10.80;99.90
51837;DHT22;38941;53.254;6.600;2023-04-15T12:30:49;10.90;99.90
51837;DHT22;38941;53.254;6.600;2023-04-15T12:32:51;10.90;99.90
51837;DHT22;38941;53.254;6.600;2023-04-15T12:34:53;10.80;99.90
51837;DHT22;38941;53.254;6.600;2023-04-15T12:37:00;10.80;99.90
51837;DHT22;38941;53.254;6.600;2023-04-15T12:39:03;10.90;99.90
51837;DHT22;38941;53.254;6.600;2023-04-15T12:41:05;11.00;99.90
51837;DHT22;38941;53.254;6.600;2023-04-15T12:43:07;10.90;99.90
51837;DHT22;38941;53.254;6.600;2023-04-15T12:45:11;10.80;99.90
51837;DHT22;38941;53.254;6.600;2023-04-15T12:47:13;10.80;99.90
51837;DHT22;38941;53.254;6.600;2023-04-15T12:49:14;10.90;99.90
51837;DHT22;38941;53.254;6.600;2023-04-15T12:51:15;10.80;99.90
51837;DHT22;38941;53.254;6.600;2023-04-15T12:53:16;10.70;99.90
51837;DHT22;38941;53.254;6.600;2023-04-15T12:55:19;10.70;99.90
51837;DHT22;38941;53.254;6.600;2023-04-15T12:57:19;10.60;99.90
51837;DHT22;38941;53.254;6.600;2023-04-15T12:59:20;10.50;99.90
51837;DHT22;38941;53.254;6.600;2023-04-15T13:01:23;10.40;99.90
51837;DHT22;38941;53.254;6.600;2023-04-15T13:03:25;9.50;99.90
51837;DHT22;38941;53.254;6.600;2023-04-15T13:05:26;10.40;99.90
51837;DHT22;38941;53.254;6.600;2023-04-15T13:07:27;10.50;99.90
51837;DHT22;38941;53.254;6.600;2023-04-15T13:09:29;10.30;99.90
51837;DHT22;38941;53.254;6.600;2023-04-15T13:11:32;10.40;99.90
51837;DHT22;38941;53.254;6.600;2023-04-15T13:13:38;10.40;99.90
51837;DHT22;38941;53.254;6.600;2023-04-15T13:15:40;10.20;99.90
51837;DHT22;38941;53.254;6.600;2023-04-15T13:17:41;10.20;99.90
51837;DHT22;38941;53.254;6.600;2023-04-15T13:19:43;10.10;99.90
51837;DHT22;38941;53.254;6.600;2023-04-15T13:21:44;10.20;99.90
51837;DHT22;38941;53.254;6.600;2023-04-15T13:23:45;10.10;99.90